Warm Springs Summit, Nevada Weather observations

Data are for observation ending at time listed.
 Day   Time    Ave.   Ave.  Ave.  Vector   Max.   Stn.    Total    Solar   Ave.  
  of    of     Air    Rel.  Wind   Wind    Wind   Baro.  Precip.   Rad.    Soil  
Year   Day     Temp.  Hum.  Speed  Dir.    Gust   Pres.                    Temp. 
2015   (PST)    F      %     mph   deg.    mph     mb.     in.     W/m2     F   
------------------------------------------------------------------------------
 214    7:50   64.0    43   18.1    88     29.4   776.7    0.00     349    68.5
 214    8:00   64.7    43   14.5    80     21.5   776.8    0.00     450    68.5
 214    8:10   63.4    44   13.8    69     18.3   776.8    0.00     321    68.5
 214    8:20   62.7    46   12.0    69     19.0   776.8    0.00     312    68.6
 214    8:30   63.1    46   10.3    74     17.4   776.8    0.00     304    68.7
 214    8:40   62.4    48    9.1    61     13.6   776.7    0.00     325    68.7
 214    8:50   63.2    47    6.9    52     11.7   776.7    0.00     415    68.8
 214    9:00   64.0    45    7.8    56     12.0   776.7    0.00     555    68.8
 214    9:10   65.0    43    9.2    63     13.0   776.6    0.00     629    68.8
 214    9:20   66.5    41    8.9    76     13.3   776.6    0.00     669    68.9
 214    9:30   67.7    39   10.1    68     14.9   776.6    0.00     694    69.0
 214    9:40   68.7    37    9.7    75     15.0   776.6    0.00     717    69.1
 214    9:50   68.8    36    8.4    67     13.6   776.6    0.00     827    69.2
 214   10:00   70.1    34    9.3    76     17.0   776.6    0.00     970    69.3
 214   10:10   69.9    34    5.1    59     12.7   776.7    0.00    1057    69.4
 214   10:20   72.7    32    9.4    81     17.7   776.6    0.00    1012    69.5
 214   10:30   71.5    33    8.6    75     14.0   776.6    0.00    1056    69.7
 214   10:40   72.0    32    5.1    78     10.4   776.6    0.00     846    69.9
 214   10:50   71.8    32    6.6   149     13.8   776.6    0.00     714    70.1
 214   11:00   71.7    32    5.4   123     12.8   776.5    0.00    1035    70.3
 214   11:10   73.2    31    4.9   139     11.0   776.6    0.00     986    70.5
 214   11:20   75.7    28    9.8   166     21.0   776.5    0.00     912    70.8
 214   11:30   72.4    31    6.7   135     14.4   776.5    0.00     657    71.1
 214   11:40   72.4    30   10.7   159     20.1   776.4    0.00     452    71.3
 214   11:50   71.6    31   13.3   217     20.7   776.3    0.00     693    71.6
 214   12:00   71.9    31   10.7   227     19.1   776.3    0.00     781    71.9
 214   12:10   71.8    31   11.4   233     21.3   776.3    0.00     582    72.2
 214   12:20   70.6    32   13.1   227     22.7   776.2    0.00     462    72.5
 214   12:30   70.5    32   13.7   231     22.2   776.2    0.00     594    72.8
 214   12:40   71.2    32   14.6   224     23.1   776.2    0.00     668    73.1
 214   12:50   70.6    33   15.0   237     21.0   776.2    0.00     719    73.3
 214   13:00   70.8    32   10.9   235     20.3   776.2    0.00     646    73.5
 214   13:10   73.2    30   11.9   238     24.5   776.1    0.00     896    73.8
 214   13:20   72.5    30   14.4   244     23.7   776.0    0.00     816    74.0
 214   13:30   72.8    30   12.5   224     18.7   775.9    0.00     515    74.3
 214   13:40   72.1    30   15.8   247     25.0   775.7    0.00     475    74.4
 214   13:50   72.1    30   15.7   231     30.5   775.6    0.00     454    74.6
 214   14:00   72.1    29   15.3   231     25.7   775.5    0.00     414    74.9
 214   14:10   71.8    30   17.7   244     25.6   775.4    0.00     386    75.0
 214   14:20   72.1    30   16.3   226     26.1   775.3    0.00     385    75.2
 214   14:30   71.5    31   16.3   236     24.3   775.3    0.00     479    75.4
 214   14:40   72.2    30   17.4   249     24.4   775.3    0.00     567    75.5
 214   14:50   75.0    26   14.7   247     25.4   775.4    0.00    1013    75.7
 214   15:00   74.0    26   14.9   249     23.3   775.3    0.00     624    75.8
 214   15:10   73.8    26   18.7   264     27.6   775.2    0.00     712    75.9
 214   15:20   73.8    24   19.7   244     27.8   775.1    0.00     754    76.0
 214   15:30   74.2    25   19.6   257     28.3   775.1    0.00     749    76.1
 214   15:40   74.1    25   18.3   258     25.9   775.0    0.00     630    76.2
 214   15:50   73.6    25   18.1   254     29.2   775.0    0.00     525    76.3
 214   16:00   73.2    25   17.7   266     24.3   774.9    0.00     347    76.4
 214   16:10   72.6    26   15.3   245     22.3   774.8    0.00     265    76.5
 214   16:20   72.5    26   15.5   255     25.6   774.8    0.00     251    76.6
 214   16:30   72.4    26   14.9   257     25.3   774.8    0.00     235    76.7
 214   16:40   72.6    26   17.4   261     29.3   774.6    0.00     280    76.8
 214   16:50   73.7    24   18.3   262     26.7   774.5    0.00     419    76.8
 214   17:00   73.6    24   17.6   251     26.3   774.5    0.00     351    76.9
 214   17:10   73.0    25   18.7   258     25.1   774.6    0.00     211    76.9
 214   17:20   72.7    25   16.6   261     21.8   774.6    0.00     183    77.0
 214   17:30   72.3    26   16.1   267     22.5   774.6    0.00     157    77.0
 214   17:40   72.3    26   15.7   263     21.3   774.6    0.00     144    77.0
 214   17:50   71.9    26   13.1   260     18.1   774.6    0.00     104    77.1
 214   18:00   71.7    27   12.8   262     16.6   774.7    0.00      98    77.1
 214   18:10   71.8    27   10.7   255     14.4   774.8    0.00      85    77.1
 214   18:20   71.6    27   10.6   244     14.7   774.8    0.00      76    77.0
 214   18:30   71.5    27    9.1   248     12.7   774.9    0.00      46    77.0
 214   18:40   70.8    28    7.3   250     11.2   774.9    0.00      18    77.0
 214   18:50   70.3    28    6.6   260      8.2   774.9    0.00       6    76.9
 214   19:00   70.0    28    7.8   265      9.0   774.8    0.00       2    76.9
 214   19:10   69.7    29    7.0   276      8.4   774.8    0.00       0    76.8
 214   19:20   69.2    30    6.1   303      8.5   774.8    0.00       0    76.8
 214   19:30   69.2    30    5.3   310      6.9   774.8    0.00       0    76.7
 214   19:40   69.3    30    5.1   319      6.4   774.8    0.00       0    76.6
 214   19:50   69.2    30    4.8   320      6.9   774.9    0.00       0    76.5
 214   20:00   68.7    31    4.5   323      5.7   775.0    0.00       0    76.4
 214   20:10   68.6    31    4.8   319      6.8   775.0    0.00       0    76.3
 214   20:20   68.7    31    4.8   314      6.0   775.0    0.00       0    76.2
 214   20:30   68.8    31    4.9   309      6.2   775.1    0.00       0    76.1
 214   20:40   68.8    30    5.1   293      6.1   775.1    0.00       0    76.0
 214   20:50   69.0    30    5.8   279      7.3   775.1    0.00       0    75.9
 214   21:00   68.8    30    6.7   275      8.4   775.0    0.00       0    75.8
 214   21:10   68.2    31    7.4   293     10.1   775.0    0.00       0    75.7
 214   21:20   67.7    32    8.1   299     11.7   775.0    0.00       0    75.5
 214   21:30   68.2    32    7.0   286     11.1   775.0    0.00       0    75.4
 214   21:40   68.4    32    7.5   278     10.1   774.9    0.00       0    75.3
 214   21:50   68.1    32    8.6   284     10.6   774.8    0.00       0    75.2
 214   22:00   67.9    32    8.4   286     10.5   774.8    0.00       0    75.0
 214   22:10   68.0    32    7.4   272      9.5   774.8    0.00       0    74.9
 214   22:20   68.9    31    7.7   250     11.8   774.8    0.00       0    74.8
 214   22:30   69.1    30    5.5   261     10.9   774.8    0.00       0    74.7
 214   22:40   68.6    31    5.0   271      7.2   774.8    0.00       0    74.5
 214   22:50   68.7    31    3.7   292      8.4   774.8    0.00       0    74.4
 214   23:00   68.5    31    2.2    85      5.3   774.8    0.00       0    74.3
 214   23:10   67.4    32    3.6   101      5.6   774.8    0.00       0    74.2
 214   23:20   67.6    32    0.2   103      1.8   774.8    0.00       0    74.0
 214   23:30   67.9    32    1.1   252      2.2   774.8    0.00       0    73.9
 214   23:40   67.5    33    2.7   140      3.6   774.8    0.00       0    73.8
 214   23:50   67.5    33    3.2   105      4.0   774.7    0.00       0    73.7
 215    0:00   67.2    33    4.7   105      6.6   774.7    0.00       0    73.6
 215    0:10   66.8    33    4.7   105      6.6   774.7    0.00       0    73.4
 215    0:20   66.3    34    4.0   106      5.1   774.7    0.00       0    73.3
 215    0:30   66.4    33    4.4   106      6.3   774.6    0.00       0    73.2
 215    0:40   66.3    34    4.2    96      5.4   774.6    0.00       0    73.1
 215    0:50   65.8    35    4.3   106      5.6   774.6    0.00       0    73.0
 215    1:00   65.6    35    4.9   124      7.2   774.7    0.00       0    72.8
 215    1:10   65.7    35    4.7   118      6.4   774.6    0.00       0    72.7
 215    1:20   65.6    35    5.1   116      6.8   774.7    0.00       0    72.6
 215    1:30   65.2    35    4.9   111      5.9   774.7    0.00       0    72.5
 215    1:40   65.0    36    4.7    90      5.9   774.7    0.00       0    72.4
 215    1:50   65.0    36    5.7    88      6.5   774.7    0.00       0    72.3
 215    2:00   64.8    36    5.0    89      6.2   774.7    0.00       0    72.2
 215    2:10   64.9    36    4.6    96      5.7   774.8    0.00       0    72.1
 215    2:20   65.4    35    4.2    76      4.7   774.8    0.00       0    72.0
 215    2:30   65.4    35    4.5    82      5.1   774.7    0.00       0    71.9
 215    2:40   65.7    35    3.6    62      5.0   774.7    0.00       0    71.7
 215    2:50   65.6    35    4.6    61      5.9   774.7    0.00       0    71.7
 215    3:00   65.4    35    4.7    69      5.8   774.7    0.00       0    71.5
 215    3:10   65.7    34    3.7    62      4.9   774.7    0.00       0    71.5
 215    3:20   65.6    35    4.0    53      4.6   774.7    0.00       0    71.4
 215    3:30   65.5    35    3.8    38      4.6   774.7    0.00       0    71.3
 215    3:40   65.5    35    3.9    41      4.8   774.7    0.00       0    71.2
 215    3:50   65.4    35    4.8    48      5.5   774.7    0.00       0    71.1
 215    4:00   65.4    35    4.7    61      5.3   774.7    0.00       0    71.0
 215    4:10   65.4    35    4.6    60      5.3   774.8    0.00       0    70.9
 215    4:20   65.1    35    4.2    85      5.3   774.8    0.00       0    70.8
 215    4:30   65.1    35    3.3    99      4.3   774.9    0.00       0    70.7
 215    4:40   65.3    35    3.6   111      4.6   775.0    0.00       1    70.6
 215    4:50   65.2    35    4.2   128      5.2   775.0    0.00       4    70.5
 215    5:00   64.8    36    4.5   139      5.7   775.1    0.00       8    70.4
 215    5:10   65.1    35    4.5   136      5.5   775.2    0.00      17    70.4
 215    5:20   64.9    36    4.4   134      5.4   775.2    0.00      16    70.3
 215    5:30   64.8    36    4.1   139      4.6   775.2    0.00      24    70.2
 215    5:40   65.9    34    3.4   132      4.6   775.3    0.00     117    70.1
 215    5:50   67.2    34    2.9   104      3.8   775.3    0.00     152    70.0
 215    6:00   67.3    33    2.9    93      4.2   775.4    0.00     127    69.9
 215    6:10   68.3    32    1.5    71      3.0   775.4    0.00     193    69.8
 215    6:20   69.4    31    2.6    66      5.5   775.4    0.00     248    69.8
 215    6:30   68.6    32    3.2    46      5.3   775.4    0.00     283    69.7
 215    6:40   67.8    33    4.5    40      6.0   775.5    0.00     317    69.6
 215    6:50   67.5    34    4.2    40      6.1   775.6    0.00     352    69.5
 215    7:00   68.4    33    4.1    37      7.1   775.6    0.00     387    69.4
 215    7:10   68.1    33    4.6    29      6.8   775.7    0.00     420    69.4
 215    7:20   68.2    33    4.7    34      7.5   775.7    0.00     456    69.4
 215    7:30   68.5    33    5.4    35      7.4   775.8    0.00     488    69.3
 215    7:40   68.7    32    4.9    43      9.3   775.9    0.00     521    69.4

Return to Warm Springs Summit, Nevada graphs page.


Western Regional Climate Center,wrcc@dri.edu